Time;durP1;ratioP1;P1;durP2;ratioP2;P2;SDS_P1;SDS_P2;PMS_P1;PMS_P2;Temp;Humidity;BMP_temperature;BMP_pressure;BME280_temperature;BME280_humidity;BME280_pressure;Samples;Min_cycle;Max_cycle;Signal;HPM_P1;HPM_P2
2022/05/19 00:01:09;;;;;;;5.00;4.53;;;;;;;;;;5012184;28;20452;-76
2022/05/19 00:03:37;;;;;;;5.73;4.40;;;;;;;;;;5014420;28;20542;-75
2022/05/19 00:06:05;;;;;;;5.80;4.80;;;;;;;;;;5017092;28;20439;-76
2022/05/19 00:08:33;;;;;;;4.40;3.53;;;;;;;;;;5026291;28;20494;-76
2022/05/19 00:11:02;;;;;;;4.20;3.90;;;;;;;;;;5027129;28;20916;-77
2022/05/19 00:13:31;;;;;;;4.40;4.00;;;;;;;;;;5011535;28;20595;-76
2022/05/19 00:15:58;;;;;;;4.30;4.00;;;;;;;;;;5012240;28;20501;-75
2022/05/19 00:18:26;;;;;;;4.80;4.40;;;;;;;;;;5012236;28;20486;-77
2022/05/19 00:20:54;;;;;;;6.57;5.27;;;;;;;;;;5012070;28;20447;-77
2022/05/19 00:23:21;;;;;;;4.70;4.40;;;;;;;;;;5012146;28;20497;-77
2022/05/19 00:25:48;;;;;;;4.93;4.53;;;;;;;;;;5012125;28;20446;-76
2022/05/19 00:28:15;;;;;;;5.07;4.77;;;;;;;;;;5011692;28;20627;-77
2022/05/19 00:30:44;;;;;;;4.87;4.47;;;;;;;;;;5012114;28;20447;-77
2022/05/19 00:33:11;;;;;;;4.97;4.57;;;;;;;;;;5011842;28;20465;-76
2022/05/19 00:35:39;;;;;;;5.30;4.90;;;;;;;;;;5012144;28;20439;-77
2022/05/19 00:38:07;;;;;;;4.83;4.43;;;;;;;;;;5011741;28;20460;-77
2022/05/19 00:40:34;;;;;;;4.87;4.40;;;;;;;;;;5011664;28;20866;-76
2022/05/19 00:43:01;;;;;;;5.03;4.63;;;;;;;;;;5011241;28;20600;-76
2022/05/19 00:45:29;;;;;;;4.87;4.50;;;;;;;;;;5011889;28;20451;-75
2022/05/19 00:47:59;;;;;;;4.80;4.40;;;;;;;;;;5011987;28;21059;-77
2022/05/19 00:50:29;;;;;;;6.00;4.70;;;;;;;;;;5011916;28;20525;-76
2022/05/19 00:53:00;;;;;;;5.40;4.90;;;;;;;;;;5005994;28;20470;-76
2022/05/19 00:55:29;;;;;;;5.40;5.00;;;;;;;;;;5011925;28;20498;-76
2022/05/19 00:57:58;;;;;;;5.93;4.90;;;;;;;;;;5011346;28;20471;-77
2022/05/19 01:00:25;;;;;;;5.63;5.00;;;;;;;;;;5011511;28;20514;-76
2022/05/19 01:02:54;;;;;;;5.40;5.00;;;;;;;;;;5011752;28;20494;-76
2022/05/19 01:05:25;;;;;;;4.77;4.37;;;;;;;;;;5012151;28;20467;-75
2022/05/19 01:07:54;;;;;;;5.87;5.33;;;;;;;;;;5011539;28;20984;-76
2022/05/19 01:10:22;;;;;;;5.00;4.63;;;;;;;;;;5011806;28;20443;-76
2022/05/19 01:12:50;;;;;;;5.73;5.30;;;;;;;;;;5010957;28;20804;-76
2022/05/19 01:15:17;;;;;;;5.40;4.83;;;;;;;;;;5011318;28;20448;-76
2022/05/19 01:17:45;;;;;;;5.07;4.67;;;;;;;;;;5011629;28;21044;-76
2022/05/19 01:20:15;;;;;;;5.27;4.90;;;;;;;;;;5010980;28;20447;-76
2022/05/19 01:22:47;;;;;;;4.83;4.53;;;;;;;;;;5011789;28;20469;-76
2022/05/19 01:25:17;;;;;;;7.13;5.27;;;;;;;;;;5011190;28;20483;-75
2022/05/19 01:27:46;;;;;;;5.07;4.67;;;;;;;;;;5016136;28;20468;-75
2022/05/19 01:30:13;;;;;;;5.73;5.00;;;;;;;;;;5022290;28;20490;-76
2022/05/19 01:32:41;;;;;;;5.50;5.17;;;;;;;;;;5022511;28;20440;-77
2022/05/19 01:35:09;;;;;;;6.10;4.50;;;;;;;;;;5023170;28;20442;-76
2022/05/19 01:37:36;;;;;;;5.43;4.60;;;;;;;;;;5021448;28;20855;-76
2022/05/19 01:40:04;;;;;;;5.67;5.17;;;;;;;;;;5021393;28;20451;-75
2022/05/19 01:42:38;;;;;;;5.10;4.70;;;;;;;;;;5011078;28;20443;-76
2022/05/19 01:45:12;;;;;;;7.80;4.53;;;;;;;;;;5011137;28;20498;-77
2022/05/19 01:47:42;;;;;;;5.90;5.47;;;;;;;;;;5011041;28;20477;-76
2022/05/19 01:50:11;;;;;;;5.63;4.97;;;;;;;;;;5011089;28;20861;-77
2022/05/19 01:52:42;;;;;;;5.67;5.13;;;;;;;;;;5010900;28;20521;-77
2022/05/19 01:55:13;;;;;;;5.40;5.00;;;;;;;;;;5014647;28;20451;-76
2022/05/19 01:57:43;;;;;;;5.83;5.43;;;;;;;;;;5014057;28;20506;-75
2022/05/19 02:00:13;;;;;;;5.47;5.03;;;;;;;;;;5014562;28;20438;-75
2022/05/19 02:02:45;;;;;;;5.63;5.33;;;;;;;;;;5014290;28;20462;-75
2022/05/19 02:05:18;;;;;;;5.27;4.83;;;;;;;;;;5014246;28;20971;-76
2022/05/19 02:07:45;;;;;;;5.33;4.93;;;;;;;;;;5003404;28;20505;-75
2022/05/19 02:10:15;;;;;;;5.50;5.20;;;;;;;;;;4994267;28;20901;-76
2022/05/19 02:12:42;;;;;;;6.30;5.00;;;;;;;;;;4994318;28;20448;-76
2022/05/19 02:15:12;;;;;;;6.00;5.43;;;;;;;;;;4994826;28;20864;-76
2022/05/19 02:17:42;;;;;;;6.43;5.30;;;;;;;;;;4994369;28;20468;-76
2022/05/19 02:20:10;;;;;;;5.90;5.40;;;;;;;;;;4994485;28;20447;-76
2022/05/19 02:22:38;;;;;;;5.70;5.20;;;;;;;;;;4993832;28;20448;-76
2022/05/19 02:25:08;;;;;;;5.77;5.27;;;;;;;;;;4994479;28;20931;-76
2022/05/19 02:27:37;;;;;;;5.20;4.80;;;;;;;;;;4994256;28;20472;-77
2022/05/19 02:30:06;;;;;;;5.90;5.43;;;;;;;;;;4994036;28;20976;-76
2022/05/19 02:32:35;;;;;;;5.17;4.87;;;;;;;;;;4993974;28;20940;-77
2022/05/19 02:35:03;;;;;;;5.53;5.03;;;;;;;;;;4994203;28;20579;-76
2022/05/19 02:37:31;;;;;;;5.93;5.40;;;;;;;;;;4994086;28;20551;-75
2022/05/19 02:39:58;;;;;;;5.60;5.20;;;;;;;;;;4994258;28;20472;-76
2022/05/19 02:42:25;;;;;;;5.13;4.63;;;;;;;;;;4994129;28;20460;-77
2022/05/19 02:44:52;;;;;;;5.83;5.43;;;;;;;;;;4993775;28;20983;-76
2022/05/19 02:47:19;;;;;;;6.03;5.53;;;;;;;;;;4994480;28;20515;-77
2022/05/19 02:49:46;;;;;;;5.73;5.30;;;;;;;;;;4993884;28;21008;-76
2022/05/19 02:52:15;;;;;;;5.83;5.43;;;;;;;;;;4996543;28;20498;-76
2022/05/19 02:54:42;;;;;;;5.83;5.33;;;;;;;;;;4994217;28;20749;-76
2022/05/19 02:57:09;;;;;;;5.93;5.53;;;;;;;;;;4994006;28;20451;-76
2022/05/19 02:59:36;;;;;;;6.10;5.60;;;;;;;;;;4994724;28;20461;-77
2022/05/19 03:02:04;;;;;;;5.60;5.10;;;;;;;;;;4993755;28;20859;-76
2022/05/19 03:04:31;;;;;;;5.20;4.80;;;;;;;;;;4992166;28;20499;-75
2022/05/19 03:06:58;;;;;;;6.20;5.27;;;;;;;;;;5000000;28;20900;-76
2022/05/19 03:09:26;;;;;;;6.20;5.70;;;;;;;;;;5013692;28;20486;-75
2022/05/19 03:11:53;;;;;;;6.20;5.70;;;;;;;;;;5014001;28;20443;-76
2022/05/19 03:14:20;;;;;;;6.70;5.43;;;;;;;;;;5018360;28;20447;-76
2022/05/19 03:16:47;;;;;;;5.80;5.40;;;;;;;;;;5013281;28;20454;-77
2022/05/19 03:19:16;;;;;;;5.63;5.23;;;;;;;;;;5013596;28;20837;-76
2022/05/19 03:21:43;;;;;;;5.73;5.30;;;;;;;;;;5012956;28;20810;-74
2022/05/19 03:24:11;;;;;;;5.53;4.90;;;;;;;;;;5012781;28;20450;-75
2022/05/19 03:26:39;;;;;;;5.97;5.47;;;;;;;;;;5012821;28;20439;-76
2022/05/19 03:29:07;;;;;;;7.33;5.83;;;;;;;;;;5012742;28;20483;-76
2022/05/19 03:31:34;;;;;;;5.53;5.17;;;;;;;;;;5012628;28;20534;-76
2022/05/19 03:34:01;;;;;;;5.53;5.13;;;;;;;;;;5012796;28;20435;-76
2022/05/19 03:36:28;;;;;;;5.90;5.50;;;;;;;;;;5012845;28;20439;-77
2022/05/19 03:38:55;;;;;;;6.30;5.80;;;;;;;;;;5012781;28;20467;-77
2022/05/19 03:41:22;;;;;;;6.17;5.67;;;;;;;;;;5012671;28;21014;-76
2022/05/19 03:43:51;;;;;;;8.00;5.40;;;;;;;;;;5012303;28;21011;-76
2022/05/19 03:46:18;;;;;;;6.73;5.90;;;;;;;;;;5012385;28;20443;-76
2022/05/19 03:48:45;;;;;;;6.50;5.60;;;;;;;;;;5012388;28;20510;-76
2022/05/19 03:51:13;;;;;;;8.40;7.70;;;;;;;;;;5012361;28;20931;-77
2022/05/19 03:53:40;;;;;;;6.50;5.90;;;;;;;;;;5012367;28;20444;-76
2022/05/19 03:56:07;;;;;;;6.63;6.03;;;;;;;;;;5012361;28;20455;-76
2022/05/19 03:58:34;;;;;;;7.37;6.30;;;;;;;;;;5011998;28;20467;-76
2022/05/19 04:01:02;;;;;;;6.23;5.83;;;;;;;;;;5012590;28;20778;-76
2022/05/19 04:03:29;;;;;;;5.80;5.30;;;;;;;;;;5012150;28;20453;-76
2022/05/19 04:05:56;;;;;;;6.10;5.70;;;;;;;;;;5012272;28;20494;-76
2022/05/19 04:08:23;;;;;;;5.80;5.30;;;;;;;;;;4995908;28;20516;-76
2022/05/19 04:10:50;;;;;;;6.33;5.87;;;;;;;;;;4999091;28;20537;-77
2022/05/19 04:13:17;;;;;;;9.40;6.23;;;;;;;;;;5011680;28;20474;-77
2022/05/19 04:15:44;;;;;;;6.60;6.00;;;;;;;;;;5011667;28;20931;-76
2022/05/19 04:18:14;;;;;;;8.10;6.43;;;;;;;;;;5011747;28;20468;-76
2022/05/19 04:20:41;;;;;;;13.33;7.00;;;;;;;;;;4998162;28;20444;-75
2022/05/19 04:23:08;;;;;;;6.77;6.27;;;;;;;;;;5011563;28;20447;-75
2022/05/19 04:25:35;;;;;;;6.40;5.80;;;;;;;;;;5011532;28;20482;-76
2022/05/19 04:28:03;;;;;;;6.47;5.87;;;;;;;;;;5011879;28;20470;-77
2022/05/19 04:30:30;;;;;;;6.77;6.17;;;;;;;;;;5011994;28;20491;-76
2022/05/19 04:32:57;;;;;;;6.83;6.23;;;;;;;;;;5011910;28;20788;-77
2022/05/19 04:35:25;;;;;;;7.23;6.53;;;;;;;;;;5011815;28;20864;-77
2022/05/19 04:37:53;;;;;;;6.87;6.37;;;;;;;;;;5011604;28;20997;-76
2022/05/19 04:40:20;;;;;;;7.93;6.47;;;;;;;;;;5011405;28;20865;-77
2022/05/19 04:42:47;;;;;;;7.60;6.90;;;;;;;;;;5011883;28;20506;-75
2022/05/19 04:45:15;;;;;;;7.03;6.43;;;;;;;;;;5011681;28;20458;-77
2022/05/19 04:47:42;;;;;;;7.40;6.80;;;;;;;;;;5011430;28;20475;-77
2022/05/19 04:50:10;;;;;;;6.93;6.30;;;;;;;;;;5011352;28;20506;-77
2022/05/19 04:52:38;;;;;;;9.03;7.60;;;;;;;;;;5011054;28;20919;-78
2022/05/19 04:55:06;;;;;;;8.67;7.87;;;;;;;;;;5011576;28;20459;-77
2022/05/19 04:57:33;;;;;;;9.03;8.00;;;;;;;;;;5011239;28;20844;-75
2022/05/19 05:00:00;;;;;;;9.70;8.70;;;;;;;;;;5012174;28;20443;-77
2022/05/19 05:02:27;;;;;;;10.40;8.43;;;;;;;;;;5011787;28;20451;-77
2022/05/19 05:04:54;;;;;;;8.57;7.77;;;;;;;;;;5011306;28;20955;-76
2022/05/19 05:07:21;;;;;;;10.50;8.87;;;;;;;;;;5011771;28;20459;-78
2022/05/19 05:09:49;;;;;;;11.97;9.03;;;;;;;;;;5011416;28;20489;-76
2022/05/19 05:12:16;;;;;;;8.73;7.90;;;;;;;;;;5012105;28;20440;-77
2022/05/19 05:14:44;;;;;;;8.17;7.30;;;;;;;;;;5011383;28;20498;-77
2022/05/19 05:17:11;;;;;;;8.47;7.60;;;;;;;;;;5011269;28;20451;-75
2022/05/19 05:19:38;;;;;;;8.03;7.33;;;;;;;;;;5011660;28;20506;-77
2022/05/19 05:22:05;;;;;;;9.30;7.73;;;;;;;;;;5011386;28;20447;-77
2022/05/19 05:24:33;;;;;;;7.47;6.87;;;;;;;;;;5010840;28;20943;-76
2022/05/19 05:27:03;;;;;;;10.07;8.37;;;;;;;;;;5011367;28;20893;-77
2022/05/19 05:29:30;;;;;;;11.27;8.43;;;;;;;;;;5014264;28;20478;-76
2022/05/19 05:31:57;;;;;;;9.43;7.37;;;;;;;;;;5016127;28;20482;-77
2022/05/19 05:34:24;;;;;;;8.37;7.30;;;;;;;;;;5014636;28;21027;-76
2022/05/19 05:36:51;;;;;;;9.63;8.60;;;;;;;;;;5015153;28;20448;-77
2022/05/19 05:39:18;;;;;;;9.10;7.63;;;;;;;;;;5014918;28;20851;-76
2022/05/19 05:41:45;;;;;;;8.10;7.30;;;;;;;;;;5015033;28;20439;-77
2022/05/19 05:44:14;;;;;;;7.00;6.00;;;;;;;;;;5014055;28;20446;-78
2022/05/19 05:46:41;;;;;;;10.07;7.00;;;;;;;;;;5007827;28;20455;-77
2022/05/19 05:49:08;;;;;;;7.17;5.80;;;;;;;;;;5015368;28;20521;-76
2022/05/19 05:51:35;;;;;;;7.00;6.30;;;;;;;;;;5016005;28;20580;-77
2022/05/19 05:54:02;;;;;;;8.10;5.30;;;;;;;;;;5015698;28;20787;-77
2022/05/19 05:56:29;;;;;;;8.37;5.83;;;;;;;;;;5015893;28;20443;-76
2022/05/19 05:58:56;;;;;;;8.80;5.73;;;;;;;;;;5016656;28;20475;-77
2022/05/19 06:01:25;;;;;;;5.50;5.03;;;;;;;;;;5015047;28;20509;-77
2022/05/19 06:03:52;;;;;;;8.13;5.37;;;;;;;;;;5015034;28;20451;-77
2022/05/19 06:06:19;;;;;;;5.60;5.10;;;;;;;;;;5014937;28;20454;-77
2022/05/19 06:08:46;;;;;;;6.50;4.60;;;;;;;;;;5014263;28;20525;-77
2022/05/19 06:11:14;;;;;;;5.53;4.77;;;;;;;;;;5014822;28;20487;-76
2022/05/19 06:13:41;;;;;;;5.87;5.00;;;;;;;;;;5015644;28;20904;-77
2022/05/19 06:16:08;;;;;;;5.73;5.20;;;;;;;;;;5014863;28;20866;-77
2022/05/19 06:18:36;;;;;;;8.90;5.13;;;;;;;;;;5015721;28;20482;-77
2022/05/19 06:21:04;;;;;;;5.93;4.20;;;;;;;;;;5016915;28;20450;-77
2022/05/19 06:23:32;;;;;;;5.40;4.20;;;;;;;;;;5014286;28;20443;-76
2022/05/19 06:26:00;;;;;;;5.17;4.27;;;;;;;;;;5012859;28;20463;-78
2022/05/19 06:28:27;;;;;;;4.93;4.43;;;;;;;;;;5013328;28;20467;-77
2022/05/19 06:30:55;;;;;;;4.90;4.00;;;;;;;;;;5014309;28;20490;-77
2022/05/19 06:33:22;;;;;;;8.47;4.70;;;;;;;;;;5014614;28;20847;-77
2022/05/19 06:35:51;;;;;;;6.40;5.50;;;;;;;;;;5014433;28;20458;-77
2022/05/19 06:38:18;;;;;;;6.47;4.20;;;;;;;;;;5014347;28;20525;-77
2022/05/19 06:40:45;;;;;;;3.83;3.53;;;;;;;;;;5014170;28;20435;-78
2022/05/19 06:43:13;;;;;;;4.40;4.00;;;;;;;;;;5013930;28;20443;-77
2022/05/19 06:45:41;;;;;;;3.87;3.47;;;;;;;;;;5014431;28;20502;-77
2022/05/19 06:48:08;;;;;;;5.30;3.77;;;;;;;;;;5013969;28;20537;-77
2022/05/19 06:50:35;;;;;;;5.70;4.10;;;;;;;;;;5014293;28;20500;-77
2022/05/19 06:53:04;;;;;;;4.90;3.67;;;;;;;;;;5014495;28;20448;-77
2022/05/19 06:55:32;;;;;;;4.27;3.97;;;;;;;;;;5013977;28;20839;-76
2022/05/19 06:57:59;;;;;;;6.07;3.97;;;;;;;;;;5014127;28;20702;-76
2022/05/19 07:03:08;;;;;;;6.30;4.50;;;;;;;;;;5011899;28;20471;-76
2022/05/19 07:05:37;;;;;;;4.60;4.20;;;;;;;;;;5006496;28;20459;-77
2022/05/19 07:08:07;;;;;;;4.37;4.07;;;;;;;;;;5012248;28;20493;-75
2022/05/19 07:10:34;;;;;;;4.80;3.83;;;;;;;;;;5013478;28;20816;-77
2022/05/19 07:13:01;;;;;;;4.20;3.80;;;;;;;;;;5013969;28;21009;-77
2022/05/19 07:15:28;;;;;;;4.33;4.03;;;;;;;;;;5014724;28;20447;-77
2022/05/19 07:17:56;;;;;;;4.43;3.43;;;;;;;;;;5006434;28;20507;-77
2022/05/19 07:23:09;;;;;;;4.43;4.13;;;;;;;;;;5018717;28;20509;-77
2022/05/19 07:25:36;;;;;;;3.27;3.00;;;;;;;;;;5015058;28;20443;-76
2022/05/19 07:28:03;;;;;;;3.70;3.40;;;;;;;;;;5014421;28;20462;-77
2022/05/19 07:30:30;;;;;;;5.87;3.10;;;;;;;;;;5013621;28;20475;-76
2022/05/19 07:32:58;;;;;;;4.00;3.67;;;;;;;;;;5014176;28;20443;-77
2022/05/19 07:35:25;;;;;;;4.00;3.63;;;;;;;;;;5013661;28;20487;-77
2022/05/19 07:37:52;;;;;;;3.77;3.57;;;;;;;;;;5013264;28;20826;-76
2022/05/19 07:40:21;;;;;;;4.57;3.70;;;;;;;;;;5013518;28;20736;-77
2022/05/19 07:42:48;;;;;;;3.97;3.67;;;;;;;;;;5013018;28;20494;-78
2022/05/19 07:45:16;;;;;;;9.53;3.77;;;;;;;;;;5013370;28;20435;-77
2022/05/19 07:47:43;;;;;;;5.13;3.80;;;;;;;;;;5010784;28;20995;-77
2022/05/19 07:50:10;;;;;;;4.00;3.70;;;;;;;;;;5013015;28;20535;-78
2022/05/19 07:52:38;;;;;;;4.20;3.47;;;;;;;;;;5010775;28;20994;-76
2022/05/19 07:55:05;;;;;;;4.13;3.70;;;;;;;;;;5014435;28;20447;-77
2022/05/19 07:57:34;;;;;;;4.63;3.53;;;;;;;;;;5014307;28;20527;-78
2022/05/19 08:00:01;;;;;;;4.37;3.60;;;;;;;;;;5011362;28;20901;-76
2022/05/19 08:02:28;;;;;;;7.40;4.40;;;;;;;;;;5003224;28;20447;-78
2022/05/19 08:04:55;;;;;;;4.20;3.80;;;;;;;;;;5008848;28;20455;-76
2022/05/19 08:07:22;;;;;;;4.63;4.23;;;;;;;;;;5012546;28;20883;-78
2022/05/19 08:15:36;;;;;;;6.87;3.93;;;;;;;;;;5015933;28;20431;-77
2022/05/19 08:18:04;;;;;;;4.33;4.00;;;;;;;;;;4999679;28;20471;-77
2022/05/19 08:20:31;;;;;;;4.20;3.80;;;;;;;;;;5010351;28;20439;-76
2022/05/19 08:22:59;;;;;;;3.70;3.50;;;;;;;;;;4997551;28;20473;-77
2022/05/19 08:25:26;;;;;;;4.37;3.97;;;;;;;;;;5016584;28;20794;-78
2022/05/19 08:27:54;;;;;;;3.67;3.37;;;;;;;;;;5011787;28;20468;-76
2022/05/19 08:30:23;;;;;;;4.40;4.00;;;;;;;;;;5023298;28;20914;-78
2022/05/19 08:32:50;;;;;;;3.90;3.60;;;;;;;;;;5030752;28;20949;-78
2022/05/19 08:35:17;;;;;;;3.50;3.30;;;;;;;;;;5018893;28;20456;-77
2022/05/19 08:37:44;;;;;;;4.30;4.00;;;;;;;;;;5012076;28;20467;-77
2022/05/19 08:40:11;;;;;;;4.47;3.90;;;;;;;;;;5007262;28;20443;-77
2022/05/19 08:42:41;;;;;;;4.53;4.10;;;;;;;;;;5002689;28;20462;-77
2022/05/19 08:45:13;;;;;;;4.03;3.70;;;;;;;;;;5012241;28;20439;-78
2022/05/19 08:47:41;;;;;;;3.90;3.60;;;;;;;;;;5011273;28;20521;-78
2022/05/19 08:50:13;;;;;;;4.23;3.67;;;;;;;;;;5012529;28;20882;-77
2022/05/19 08:52:41;;;;;;;6.30;4.37;;;;;;;;;;5013865;28;20487;-76
2022/05/19 08:55:11;;;;;;;3.97;3.60;;;;;;;;;;5014749;28;20478;-77
2022/05/19 08:57:41;;;;;;;3.80;3.50;;;;;;;;;;5012559;28;20944;-78
2022/05/19 09:00:10;;;;;;;4.37;3.97;;;;;;;;;;5012942;28;20439;-78
2022/05/19 09:02:39;;;;;;;4.30;4.00;;;;;;;;;;5011899;28;20920;-78
2022/05/19 09:05:17;;;;;;;4.33;3.93;;;;;;;;;;5012617;28;20505;-77
2022/05/19 09:08:00;;;;;;;5.67;4.00;;;;;;;;;;5012956;28;20467;-77
2022/05/19 09:10:44;;;;;;;4.27;3.87;;;;;;;;;;5013304;28;20451;-77
2022/05/19 09:13:16;;;;;;;3.77;3.57;;;;;;;;;;5011691;28;20443;-77
2022/05/19 09:15:43;;;;;;;3.67;3.37;;;;;;;;;;5008280;28;20457;-76
2022/05/19 09:18:12;;;;;;;4.17;3.87;;;;;;;;;;5009090;28;20459;-76
2022/05/19 09:20:46;;;;;;;4.03;3.63;;;;;;;;;;5022337;28;20458;-76
2022/05/19 09:23:13;;;;;;;3.90;3.70;;;;;;;;;;5018544;28;20524;-77
2022/05/19 09:25:44;;;;;;;5.77;3.67;;;;;;;;;;5012590;28;20434;-77
2022/05/19 09:28:13;;;;;;;3.47;3.17;;;;;;;;;;5018464;28;20471;-76
2022/05/19 09:30:41;;;;;;;4.03;3.67;;;;;;;;;;5022106;28;20436;-77
2022/05/19 09:33:15;;;;;;;6.00;4.07;;;;;;;;;;5005032;28;20452;-78
2022/05/19 09:35:47;;;;;;;4.50;4.20;;;;;;;;;;5004321;28;20474;-77
2022/05/19 09:38:17;;;;;;;4.93;4.30;;;;;;;;;;5011329;28;20481;-77
2022/05/19 09:40:46;;;;;;;7.10;4.17;;;;;;;;;;5011661;28;20450;-77
2022/05/19 09:43:17;;;;;;;4.33;3.87;;;;;;;;;;5011481;28;20447;-76
2022/05/19 09:45:45;;;;;;;3.97;3.60;;;;;;;;;;5010851;28;20542;-75
2022/05/19 09:48:12;;;;;;;5.30;3.80;;;;;;;;;;5011542;28;20463;-79
2022/05/19 09:50:44;;;;;;;3.80;3.50;;;;;;;;;;5013629;28;20494;-77
2022/05/19 09:53:17;;;;;;;4.43;3.67;;;;;;;;;;5012701;28;20538;-77
2022/05/19 09:55:44;;;;;;;6.63;4.20;;;;;;;;;;5011723;28;20494;-77
2022/05/19 09:58:14;;;;;;;7.90;3.87;;;;;;;;;;5010328;28;20475;-78
2022/05/19 10:00:44;;;;;;;8.20;5.17;;;;;;;;;;5010084;28;20447;-78
2022/05/19 10:03:13;;;;;;;6.60;4.83;;;;;;;;;;5021505;28;20489;-77
2022/05/19 10:05:46;;;;;;;6.90;4.93;;;;;;;;;;5022946;28;20454;-78
2022/05/19 10:08:16;;;;;;;5.00;4.53;;;;;;;;;;5019365;28;20554;-76
2022/05/19 10:10:45;;;;;;;6.20;4.97;;;;;;;;;;5010966;28;20461;-76
2022/05/19 10:13:14;;;;;;;5.43;4.90;;;;;;;;;;5020799;28;20450;-76
2022/05/19 10:15:48;;;;;;;5.50;4.90;;;;;;;;;;5015089;28;20451;-78
2022/05/19 10:18:21;;;;;;;5.10;4.70;;;;;;;;;;5015168;28;20466;-77
2022/05/19 10:20:52;;;;;;;4.17;3.73;;;;;;;;;;5015687;28;20451;-78
2022/05/19 10:23:28;;;;;;;6.40;4.00;;;;;;;;;;5016032;28;20478;-77
2022/05/19 10:26:08;;;;;;;7.13;4.27;;;;;;;;;;5014273;28;20454;-77
2022/05/19 10:31:31;;;;;;;4.30;3.90;;;;;;;;;;5014584;28;20501;-76
2022/05/19 10:34:20;;;;;;;4.30;4.07;;;;;;;;;;5014224;28;20456;-78
2022/05/19 10:36:52;;;;;;;4.53;4.13;;;;;;;;;;4997493;28;20440;-77
2022/05/19 10:39:26;;;;;;;5.30;4.80;;;;;;;;;;5016070;28;20502;-78
2022/05/19 10:41:58;;;;;;;3.87;3.60;;;;;;;;;;5018114;28;20435;-78
2022/05/19 10:44:33;;;;;;;5.47;4.03;;;;;;;;;;5024593;28;20485;-76
2022/05/19 10:47:03;;;;;;;6.33;4.17;;;;;;;;;;5023960;28;20439;-77
2022/05/19 10:49:38;;;;;;;4.70;4.30;;;;;;;;;;5017787;28;20436;-77
2022/05/19 10:52:10;;;;;;;5.33;4.10;;;;;;;;;;5016763;28;20475;-77
2022/05/19 10:54:47;;;;;;;4.23;3.83;;;;;;;;;;5015697;28;20452;-78
2022/05/19 10:57:30;;;;;;;4.13;3.73;;;;;;;;;;5014589;28;20866;-78
2022/05/19 11:00:03;;;;;;;4.40;4.00;;;;;;;;;;5013580;28;20463;-77
2022/05/19 11:02:40;;;;;;;3.93;3.63;;;;;;;;;;5015043;28;20435;-77
2022/05/19 11:05:18;;;;;;;3.90;3.23;;;;;;;;;;5014453;28;20575;-77
2022/05/19 11:07:51;;;;;;;4.10;3.70;;;;;;;;;;5014577;28;20478;-77
2022/05/19 11:10:24;;;;;;;4.40;3.83;;;;;;;;;;5014437;28;20441;-78
2022/05/19 11:12:54;;;;;;;5.07;3.97;;;;;;;;;;5013754;28;20866;-75
2022/05/19 11:15:25;;;;;;;4.27;3.97;;;;;;;;;;5014136;28;20431;-77
2022/05/19 11:17:58;;;;;;;5.30;4.33;;;;;;;;;;5014305;28;20530;-78
2022/05/19 11:20:27;;;;;;;4.20;3.90;;;;;;;;;;5013358;28;20443;-77
2022/05/19 11:22:57;;;;;;;4.77;4.33;;;;;;;;;;5013435;28;20451;-77
2022/05/19 11:28:16;;;;;;;7.37;4.17;;;;;;;;;;5013436;28;20985;-77
2022/05/19 11:30:47;;;;;;;5.03;4.63;;;;;;;;;;5013483;28;20798;-77
2022/05/19 11:33:27;;;;;;;4.10;3.90;;;;;;;;;;5013683;28;20483;-78
2022/05/19 11:57:00;;;;;;;4.30;4.00;;;;;;;;;;4993956;28;20459;-78
2022/05/19 11:59:27;;;;;;;6.00;4.40;;;;;;;;;;4998000;28;20454;-79
2022/05/19 12:01:55;;;;;;;4.77;4.27;;;;;;;;;;5015431;28;20451;-78
2022/05/19 12:04:27;;;;;;;4.77;4.33;;;;;;;;;;5010854;28;20462;-79
2022/05/19 12:06:56;;;;;;;4.47;4.10;;;;;;;;;;5003219;28;20451;-77
2022/05/19 12:09:27;;;;;;;4.23;4.03;;;;;;;;;;5010800;28;20517;-79
2022/05/19 12:11:57;;;;;;;4.20;3.90;;;;;;;;;;5014308;28;20471;-77
2022/05/19 12:14:35;;;;;;;4.67;4.17;;;;;;;;;;5012684;28;20729;-78
2022/05/19 12:17:11;;;;;;;4.57;4.20;;;;;;;;;;5017548;28;20831;-78
2022/05/19 12:19:41;;;;;;;4.37;4.07;;;;;;;;;;5014695;28;20455;-78
2022/05/19 12:22:11;;;;;;;4.10;3.73;;;;;;;;;;5015833;28;20460;-79
2022/05/19 12:24:40;;;;;;;4.43;4.10;;;;;;;;;;5019892;28;20448;-77
2022/05/19 12:27:12;;;;;;;4.63;4.33;;;;;;;;;;5012922;28;20443;-78
2022/05/19 12:29:43;;;;;;;5.10;4.70;;;;;;;;;;5013794;28;20649;-77
2022/05/19 12:32:15;;;;;;;4.90;4.30;;;;;;;;;;5014221;28;21068;-78
2022/05/19 12:34:45;;;;;;;4.07;3.77;;;;;;;;;;5014443;28;20491;-76
2022/05/19 12:37:27;;;;;;;5.10;4.30;;;;;;;;;;5012039;28;20459;-77
2022/05/19 12:39:54;;;;;;;4.13;3.80;;;;;;;;;;5011449;28;20442;-76
2022/05/19 12:42:25;;;;;;;5.20;4.10;;;;;;;;;;5009928;28;20436;-76
2022/05/19 12:44:54;;;;;;;4.73;4.00;;;;;;;;;;5003765;28;20442;-78
2022/05/19 12:47:23;;;;;;;4.47;4.07;;;;;;;;;;5006387;28;20463;-76
2022/05/19 12:50:10;;;;;;;4.40;4.10;;;;;;;;;;5008022;28;20472;-78
2022/05/19 12:52:52;;;;;;;6.60;4.77;;;;;;;;;;5012504;28;20485;-78
2022/05/19 12:55:31;;;;;;;5.60;4.23;;;;;;;;;;5028992;28;20489;-76
2022/05/19 12:57:59;;;;;;;6.80;3.93;;;;;;;;;;5037328;28;20497;-77
2022/05/19 13:00:27;;;;;;;4.07;3.77;;;;;;;;;;5036996;28;20478;-77
2022/05/19 13:02:57;;;;;;;5.30;4.60;;;;;;;;;;5033314;28;20542;-77
2022/05/19 13:05:27;;;;;;;4.90;4.43;;;;;;;;;;5032510;28;20447;-77
2022/05/19 13:07:57;;;;;;;4.40;4.00;;;;;;;;;;5019521;28;20527;-78
2022/05/19 13:10:26;;;;;;;4.03;3.63;;;;;;;;;;5012377;28;20440;-78
2022/05/19 13:13:00;;;;;;;4.87;4.07;;;;;;;;;;5007289;28;20478;-76
2022/05/19 13:15:29;;;;;;;4.33;4.03;;;;;;;;;;5011912;28;20939;-76
2022/05/19 13:17:57;;;;;;;4.30;3.67;;;;;;;;;;5025774;28;20969;-77
2022/05/19 13:20:27;;;;;;;3.97;3.67;;;;;;;;;;5015766;28;20443;-78
2022/05/19 13:22:55;;;;;;;6.93;4.07;;;;;;;;;;5011943;28;20493;-77
2022/05/19 13:25:22;;;;;;;4.40;4.10;;;;;;;;;;5011778;28;20861;-77
2022/05/19 13:30:51;;;;;;;4.40;4.10;;;;;;;;;;5012346;28;20470;-77
2022/05/19 13:33:20;;;;;;;8.33;4.30;;;;;;;;;;5011846;28;21005;-77
2022/05/19 13:35:47;;;;;;;5.33;3.97;;;;;;;;;;5011881;28;20989;-77
2022/05/19 13:38:18;;;;;;;4.60;4.23;;;;;;;;;;5012172;28;20467;-79
2022/05/19 13:40:46;;;;;;;4.20;3.90;;;;;;;;;;5012101;28;20958;-77
2022/05/19 13:43:14;;;;;;;5.23;4.13;;;;;;;;;;5012234;28;20788;-76
2022/05/19 13:45:43;;;;;;;4.63;4.23;;;;;;;;;;5012169;28;20447;-76
2022/05/19 13:48:15;;;;;;;5.40;4.90;;;;;;;;;;5011165;28;20521;-76
2022/05/19 13:50:43;;;;;;;4.33;3.83;;;;;;;;;;5013607;28;20462;-77
2022/05/19 13:53:10;;;;;;;4.73;4.33;;;;;;;;;;5015728;28;20552;-78
2022/05/19 13:55:38;;;;;;;4.37;4.07;;;;;;;;;;5016078;28;20451;-78
2022/05/19 13:58:07;;;;;;;4.60;4.20;;;;;;;;;;5015953;28;20474;-77
2022/05/19 14:00:36;;;;;;;6.37;4.90;;;;;;;;;;5023896;28;20462;-77
2022/05/19 14:03:05;;;;;;;4.40;4.10;;;;;;;;;;5025798;28;20714;-76
2022/05/19 14:05:34;;;;;;;4.23;3.97;;;;;;;;;;5018186;28;20966;-75
2022/05/19 14:08:04;;;;;;;4.83;4.43;;;;;;;;;;5029304;28;20459;-75
2022/05/19 14:10:37;;;;;;;4.97;4.50;;;;;;;;;;5034858;28;20469;-76
2022/05/19 14:13:05;;;;;;;6.23;4.07;;;;;;;;;;5034651;28;20494;-76
2022/05/19 14:15:34;;;;;;;4.20;3.90;;;;;;;;;;5034579;28;20447;-76
2022/05/19 14:18:02;;;;;;;7.77;4.33;;;;;;;;;;5034466;28;20455;-76
2022/05/19 14:20:34;;;;;;;4.70;4.20;;;;;;;;;;5024467;28;20513;-77
2022/05/19 14:23:03;;;;;;;4.53;4.23;;;;;;;;;;5014623;28;20490;-76
2022/05/19 14:25:32;;;;;;;5.00;4.50;;;;;;;;;;5015583;28;20447;-77
2022/05/19 14:28:01;;;;;;;4.93;4.63;;;;;;;;;;5014134;28;20550;-76
2022/05/19 14:30:30;;;;;;;5.70;5.10;;;;;;;;;;5015831;28;20447;-78
2022/05/19 14:32:59;;;;;;;8.53;5.00;;;;;;;;;;5015075;28;20502;-78
2022/05/19 14:35:37;;;;;;;5.10;4.60;;;;;;;;;;5015833;28;20451;-78
2022/05/19 14:38:06;;;;;;;4.90;4.50;;;;;;;;;;5010440;28;21169;-79
2022/05/19 14:43:23;;;;;;;4.80;4.40;;;;;;;;;;5015285;28;20829;-78
2022/05/19 14:45:51;;;;;;;6.10;4.50;;;;;;;;;;5015901;28;20845;-77
2022/05/19 14:48:21;;;;;;;4.83;4.43;;;;;;;;;;5014655;28;20884;-79
2022/05/19 14:50:50;;;;;;;4.73;4.10;;;;;;;;;;5015923;28;20432;-77
2022/05/19 14:53:21;;;;;;;4.83;4.53;;;;;;;;;;5016903;28;20486;-77
2022/05/19 14:55:56;;;;;;;6.87;4.50;;;;;;;;;;5017168;28;20527;-77
2022/05/19 14:58:23;;;;;;;5.23;4.73;;;;;;;;;;5016694;28;20470;-78
2022/05/19 15:00:50;;;;;;;4.77;4.07;;;;;;;;;;5016320;28;20466;-77
2022/05/19 15:03:18;;;;;;;6.77;4.73;;;;;;;;;;5016377;28;20470;-76
2022/05/19 15:05:45;;;;;;;5.93;4.70;;;;;;;;;;5016623;28;20447;-77
2022/05/19 15:08:14;;;;;;;4.63;4.33;;;;;;;;;;5016702;28;20979;-78
2022/05/19 15:10:43;;;;;;;4.53;4.20;;;;;;;;;;5016624;28;20453;-78
2022/05/19 15:13:10;;;;;;;5.53;5.13;;;;;;;;;;5013207;28;20484;-78
2022/05/19 15:15:38;;;;;;;4.87;4.20;;;;;;;;;;5017315;28;20451;-78
2022/05/19 15:18:07;;;;;;;4.20;3.90;;;;;;;;;;5017107;28;20466;-78
2022/05/19 15:20:34;;;;;;;4.40;4.10;;;;;;;;;;5017239;28;20494;-78
2022/05/19 15:23:02;;;;;;;5.07;4.40;;;;;;;;;;5016875;28;20501;-78
2022/05/19 15:25:30;;;;;;;5.20;4.70;;;;;;;;;;5016706;28;20486;-78
2022/05/19 15:27:59;;;;;;;8.37;4.23;;;;;;;;;;5026999;28;20463;-79
2022/05/19 15:30:28;;;;;;;4.60;4.23;;;;;;;;;;5037599;28;20439;-77
2022/05/19 15:32:55;;;;;;;4.97;4.50;;;;;;;;;;5014831;28;20471;-78
2022/05/19 15:35:23;;;;;;;6.47;4.73;;;;;;;;;;5014335;28;20444;-78
2022/05/19 15:37:50;;;;;;;4.83;4.10;;;;;;;;;;5014603;28;20464;-77